Pagrindinis puslapis
METAR-TAF:

METAR-TAF

Oro uostai :

Mitiga International Airport

Tripolis, Libija

platuma: 32-54N, ilguma: 13-17E, Aukštis: 11 m

METAR: trūkstamas

Laikas: 06:41 (04:41 UTC)

Prognozė

Ataskaita buvo paskelbta 17 valandos ir 41 minutes, ne 11:00 UTC
Prognozė galioja nuo 20 metu 12 UTC su 21 metu 12 UTC
Vėjas 12 kt iš Šiaurės/Šiaurės Rytų
Matomumas 10 km arba daugiau
nėra debesų žemiau 1500 m ir nėra kamuolinių lietaus debesų
Tapsmas
nuo 20 metu 18 UTC su 20 metu 20 UTC
Vėjas 12 kt iš Rytų
Tapsmas
tarp 21 ir 0/ UTC
Vėjas 2 kt nuo kintamojo kryptimis
Tapsmas
nuo 21 metu 06 UTC su 21 metu 08 UTC
Vėjas 2 kt nuo kintamojo kryptimis

TAF: HLLM 201100Z 2012/2112 03012KT CAVOK BECMG 2018/2020 08012KT BECMG 210/2102 VRB02KT BECMG 2106/2108 VRB02KT

Orai ataskaitas ir orų prognozės (METAR, TAF).

turimą stotys yra geltonos ir raudonos taškus žemėlapyje.

Perkelti pele per norėdami pamatyti stoties vardą.

Tada spustelėkite, norėdami matyti oro stebėjimo ir prognozės.

Norėdami pakeisti žemėlapį: spustelėkite ant žalios mygtukų su juodo kryžiaus žemyn,; žalią mygtuką su brūkšneliu, jei norite nutolinti; arba žalių rodyklių gretimoms žemėlapius.


METAR-TAF: